หน้าหลัก
METAR-TAF:

METAR-TAF

ท่าอากาศยาน :

Base Presidente Eduardo Frei Montalva, ชิลี

ละติจูด: 62-11-28S, ลองจิจูด: 58-59-11W, ความสูง: 45 ม.

การสังเกตสภาพอากาศปัจจุบัน

รายงานได้ทำขึ้นเมื่อ 26 นาทีที่แล้ว ณ เวลา 06:00 UTC
ลม 23 นอตจากเหนือ/ตะวันออกเฉียงเหนือ
อุณหภูมิ -1°C
ความชื้น 93%
ความกดอากาศ 966 hPa
ทัศนวิสัย: 1200 ม.
มีเมฆมาก มืดครึ้มที่ความสูง 1000 ฟุต
หิมะฟุ้งปลิว,

METAR: SCRM 200600Z 02023KT 1200 BLSN OVC010 M01/M02 Q0966

เวลา: 02:26 (06:26 UTC)


TAF: หายไป

สังเกตการณ์สภาพอากาศและพยากรณ์อากาศของสนามบินมากกว่า 4000 แห่ง (รายงาน METAR และ TAF).

สถานีที่ดูได้จะแสดงไว้ด้วยจุดสีเหลืองและสีแดงบนแผนที่.

เลื่อนเมาส์ไปเหนือจุดเพื่อดูชื่อสถานี.

แล้วคลิกเพื่อดูสังเกตการณ์และการพยากรณ์สภาพอากาศ.

ในการเปลี่ยนแผนที่: คลิกที่ปุ่มสีเขียวที่มีกากบาทสีดำเพื่อซูมเข้า; ที่ปุ่มสีเขียวที่มีขีดเพื่อซูมออก; หรือที่ลูกศรสีเขียวเพื่อไปยังแผนที่ที่อยู่ติดกัน.


METAR-TAF: